sensor_id;sensor_type;location;lat;lon;timestamp;temperature;humidity
1391;DHT22;690;51.454;7.194;2023-07-09T00:02:18;22.60;86.50
1391;DHT22;690;51.454;7.194;2023-07-09T00:04:46;22.60;86.90
1391;DHT22;690;51.454;7.194;2023-07-09T00:07:18;22.50;86.40
1391;DHT22;690;51.454;7.194;2023-07-09T00:09:45;22.40;86.60
1391;DHT22;690;51.454;7.194;2023-07-09T00:12:17;22.40;86.70
1391;DHT22;690;51.454;7.194;2023-07-09T00:14:44;22.40;86.80
1391;DHT22;690;51.454;7.194;2023-07-09T00:17:27;22.30;87.30
1391;DHT22;690;51.454;7.194;2023-07-09T00:19:54;22.30;87.50
1391;DHT22;690;51.454;7.194;2023-07-09T00:22:35;22.20;87.60
1391;DHT22;690;51.454;7.194;2023-07-09T00:25:05;22.20;88.20
1391;DHT22;690;51.454;7.194;2023-07-09T00:27:34;22.10;89.60
1391;DHT22;690;51.454;7.194;2023-07-09T00:30:04;22.10;90.40
1391;DHT22;690;51.454;7.194;2023-07-09T00:32:32;22.00;90.50
1391;DHT22;690;51.454;7.194;2023-07-09T00:35:00;21.90;90.70
1391;DHT22;690;51.454;7.194;2023-07-09T00:37:30;21.80;91.10
1391;DHT22;690;51.454;7.194;2023-07-09T00:39:57;21.70;91.60
1391;DHT22;690;51.454;7.194;2023-07-09T00:42:24;21.60;92.00
1391;DHT22;690;51.454;7.194;2023-07-09T00:45:17;21.60;92.10
1391;DHT22;690;51.454;7.194;2023-07-09T00:47:50;21.50;92.60
1391;DHT22;690;51.454;7.194;2023-07-09T00:50:31;21.50;93.00
1391;DHT22;690;51.454;7.194;2023-07-09T00:53:02;21.40;93.50
1391;DHT22;690;51.454;7.194;2023-07-09T00:55:41;21.40;94.20
1391;DHT22;690;51.454;7.194;2023-07-09T00:58:19;21.30;94.50
1391;DHT22;690;51.454;7.194;2023-07-09T01:00:51;21.30;95.10
1391;DHT22;690;51.454;7.194;2023-07-09T01:03:23;21.20;95.70
1391;DHT22;690;51.454;7.194;2023-07-09T01:05:53;21.20;96.10
1391;DHT22;690;51.454;7.194;2023-07-09T01:08:23;21.10;96.70
1391;DHT22;690;51.454;7.194;2023-07-09T01:10:57;21.10;97.20
1391;DHT22;690;51.454;7.194;2023-07-09T01:13:24;21.00;97.80
1391;DHT22;690;51.454;7.194;2023-07-09T01:15:55;21.00;98.30
1391;DHT22;690;51.454;7.194;2023-07-09T01:18:23;20.90;99.50
1391;DHT22;690;51.454;7.194;2023-07-09T01:20:50;20.90;99.90
1391;DHT22;690;51.454;7.194;2023-07-09T01:23:20;20.80;99.90
1391;DHT22;690;51.454;7.194;2023-07-09T01:25:51;20.80;99.90
1391;DHT22;690;51.454;7.194;2023-07-09T01:28:20;20.70;99.90
1391;DHT22;690;51.454;7.194;2023-07-09T01:30:48;20.60;99.90
1391;DHT22;690;51.454;7.194;2023-07-09T01:33:29;20.60;99.90
1391;DHT22;690;51.454;7.194;2023-07-09T01:35:56;20.50;99.90
1391;DHT22;690;51.454;7.194;2023-07-09T01:38:27;20.50;99.90
1391;DHT22;690;51.454;7.194;2023-07-09T01:40:58;20.40;99.90
1391;DHT22;690;51.454;7.194;2023-07-09T01:43:39;20.40;99.90
1391;DHT22;690;51.454;7.194;2023-07-09T01:46:08;20.40;99.90
1391;DHT22;690;51.454;7.194;2023-07-09T01:48:35;20.30;99.90
1391;DHT22;690;51.454;7.194;2023-07-09T01:51:07;20.20;99.90
1391;DHT22;690;51.454;7.194;2023-07-09T01:53:37;20.20;99.90
1391;DHT22;690;51.454;7.194;2023-07-09T01:56:19;20.10;99.90
1391;DHT22;690;51.454;7.194;2023-07-09T01:58:46;20.10;99.90
1391;DHT22;690;51.454;7.194;2023-07-09T02:01:14;20.10;99.90
1391;DHT22;690;51.454;7.194;2023-07-09T02:03:42;20.00;99.90
1391;DHT22;690;51.454;7.194;2023-07-09T02:06:09;20.00;99.90
1391;DHT22;690;51.454;7.194;2023-07-09T02:08:39;19.90;99.90
1391;DHT22;690;51.454;7.194;2023-07-09T02:11:09;19.90;99.90
1391;DHT22;690;51.454;7.194;2023-07-09T02:13:36;19.80;99.90
1391;DHT22;690;51.454;7.194;2023-07-09T02:16:04;19.80;99.90
1391;DHT22;690;51.454;7.194;2023-07-09T02:18:34;19.70;99.90
1391;DHT22;690;51.454;7.194;2023-07-09T02:21:01;19.70;99.90
1391;DHT22;690;51.454;7.194;2023-07-09T02:23:28;19.70;99.90
1391;DHT22;690;51.454;7.194;2023-07-09T02:25:58;19.60;99.90
1391;DHT22;690;51.454;7.194;2023-07-09T02:28:39;19.60;99.90
1391;DHT22;690;51.454;7.194;2023-07-09T02:31:06;19.60;99.90
1391;DHT22;690;51.454;7.194;2023-07-09T02:33:47;19.50;99.90
1391;DHT22;690;51.454;7.194;2023-07-09T02:36:14;19.50;99.90
1391;DHT22;690;51.454;7.194;2023-07-09T02:38:49;19.50;99.90
1391;DHT22;690;51.454;7.194;2023-07-09T02:41:31;19.40;99.90
1391;DHT22;690;51.454;7.194;2023-07-09T02:43:58;19.40;99.90
1391;DHT22;690;51.454;7.194;2023-07-09T02:46:27;19.30;99.90
1391;DHT22;690;51.454;7.194;2023-07-09T02:48:55;19.30;99.90
1391;DHT22;690;51.454;7.194;2023-07-09T02:51:22;19.30;99.90
1391;DHT22;690;51.454;7.194;2023-07-09T02:53:50;19.30;99.90
1391;DHT22;690;51.454;7.194;2023-07-09T02:56:17;19.30;99.90
1391;DHT22;690;51.454;7.194;2023-07-09T02:58:47;19.20;99.90
1391;DHT22;690;51.454;7.194;2023-07-09T03:01:15;19.20;99.90
1391;DHT22;690;51.454;7.194;2023-07-09T03:03:42;19.20;99.90
1391;DHT22;690;51.454;7.194;2023-07-09T03:06:19;19.20;99.90
1391;DHT22;690;51.454;7.194;2023-07-09T03:08:46;19.10;99.90
1391;DHT22;690;51.454;7.194;2023-07-09T03:11:17;19.10;99.90
1391;DHT22;690;51.454;7.194;2023-07-09T03:13:47;19.10;99.90
1391;DHT22;690;51.454;7.194;2023-07-09T03:16:15;19.10;99.90
1391;DHT22;690;51.454;7.194;2023-07-09T03:18:47;19.10;99.90
1391;DHT22;690;51.454;7.194;2023-07-09T03:21:14;19.10;99.90
1391;DHT22;690;51.454;7.194;2023-07-09T03:23:41;19.00;99.90
1391;DHT22;690;51.454;7.194;2023-07-09T03:26:08;19.00;99.90
1391;DHT22;690;51.454;7.194;2023-07-09T03:28:35;19.00;99.90
1391;DHT22;690;51.454;7.194;2023-07-09T03:31:11;19.00;99.90
1391;DHT22;690;51.454;7.194;2023-07-09T03:33:48;19.00;99.90
1391;DHT22;690;51.454;7.194;2023-07-09T03:36:15;19.00;99.90
1391;DHT22;690;51.454;7.194;2023-07-09T03:38:42;18.90;99.90
1391;DHT22;690;51.454;7.194;2023-07-09T03:41:15;18.90;99.90
1391;DHT22;690;51.454;7.194;2023-07-09T03:43:42;18.90;99.90
1391;DHT22;690;51.454;7.194;2023-07-09T03:46:13;18.90;99.90
1391;DHT22;690;51.454;7.194;2023-07-09T03:48:42;18.90;99.90
1391;DHT22;690;51.454;7.194;2023-07-09T03:51:12;18.90;99.90
1391;DHT22;690;51.454;7.194;2023-07-09T03:53:39;18.90;99.90
1391;DHT22;690;51.454;7.194;2023-07-09T03:56:20;18.90;99.90
1391;DHT22;690;51.454;7.194;2023-07-09T03:58:47;18.90;99.90
1391;DHT22;690;51.454;7.194;2023-07-09T04:01:16;19.00;99.90
1391;DHT22;690;51.454;7.194;2023-07-09T04:03:45;19.00;99.90
1391;DHT22;690;51.454;7.194;2023-07-09T04:06:12;19.00;99.90
1391;DHT22;690;51.454;7.194;2023-07-09T04:08:39;19.00;99.90
1391;DHT22;690;51.454;7.194;2023-07-09T04:11:06;19.10;99.90
1391;DHT22;690;51.454;7.194;2023-07-09T04:13:44;19.10;99.90
1391;DHT22;690;51.454;7.194;2023-07-09T04:16:11;19.10;99.90
1391;DHT22;690;51.454;7.194;2023-07-09T04:18:39;19.20;99.90
1391;DHT22;690;51.454;7.194;2023-07-09T04:21:06;19.20;99.90
1391;DHT22;690;51.454;7.194;2023-07-09T04:23:33;19.20;99.90
1391;DHT22;690;51.454;7.194;2023-07-09T04:26:14;19.30;99.90
1391;DHT22;690;51.454;7.194;2023-07-09T04:28:45;19.30;99.90
1391;DHT22;690;51.454;7.194;2023-07-09T04:31:13;19.30;99.90
1391;DHT22;690;51.454;7.194;2023-07-09T04:33:44;19.40;99.90
1391;DHT22;690;51.454;7.194;2023-07-09T04:36:11;19.40;99.90
1391;DHT22;690;51.454;7.194;2023-07-09T04:38:39;19.50;99.90
1391;DHT22;690;51.454;7.194;2023-07-09T04:41:06;19.50;99.90
1391;DHT22;690;51.454;7.194;2023-07-09T04:43:36;19.60;99.90
1391;DHT22;690;51.454;7.194;2023-07-09T04:46:03;19.60;99.90
1391;DHT22;690;51.454;7.194;2023-07-09T04:48:34;19.70;99.90
1391;DHT22;690;51.454;7.194;2023-07-09T04:51:02;19.70;99.90
1391;DHT22;690;51.454;7.194;2023-07-09T04:53:32;19.80;99.90
1391;DHT22;690;51.454;7.194;2023-07-09T04:56:12;19.90;99.90
1391;DHT22;690;51.454;7.194;2023-07-09T04:58:39;20.00;99.90
1391;DHT22;690;51.454;7.194;2023-07-09T05:01:06;20.00;99.90
1391;DHT22;690;51.454;7.194;2023-07-09T05:03:33;20.10;99.90
1391;DHT22;690;51.454;7.194;2023-07-09T05:06:06;20.20;99.90
1391;DHT22;690;51.454;7.194;2023-07-09T05:08:35;20.30;99.90
1391;DHT22;690;51.454;7.194;2023-07-09T05:11:01;20.40;99.90
1391;DHT22;690;51.454;7.194;2023-07-09T05:13:29;20.50;99.90
1391;DHT22;690;51.454;7.194;2023-07-09T05:15:56;20.60;99.90
1391;DHT22;690;51.454;7.194;2023-07-09T05:18:25;20.70;99.90
1391;DHT22;690;51.454;7.194;2023-07-09T05:20:52;20.80;99.90
1391;DHT22;690;51.454;7.194;2023-07-09T05:23:24;20.90;99.90
1391;DHT22;690;51.454;7.194;2023-07-09T05:25:56;21.00;99.90
1391;DHT22;690;51.454;7.194;2023-07-09T05:28:24;21.00;99.90
1391;DHT22;690;51.454;7.194;2023-07-09T05:30:51;21.10;99.90
1391;DHT22;690;51.454;7.194;2023-07-09T05:33:19;21.20;99.90
1391;DHT22;690;51.454;7.194;2023-07-09T05:35:49;21.30;99.90
1391;DHT22;690;51.454;7.194;2023-07-09T05:38:18;21.40;99.90
1391;DHT22;690;51.454;7.194;2023-07-09T05:40:46;21.50;99.90
1391;DHT22;690;51.454;7.194;2023-07-09T05:43:14;21.60;99.90
1391;DHT22;690;51.454;7.194;2023-07-09T05:45:41;21.70;99.90
1391;DHT22;690;51.454;7.194;2023-07-09T05:48:08;21.80;99.90
1391;DHT22;690;51.454;7.194;2023-07-09T05:50:35;21.80;99.90
1391;DHT22;690;51.454;7.194;2023-07-09T05:53:02;21.90;99.90
1391;DHT22;690;51.454;7.194;2023-07-09T05:55:29;22.00;99.90
1391;DHT22;690;51.454;7.194;2023-07-09T05:57:59;22.00;99.90
1391;DHT22;690;51.454;7.194;2023-07-09T06:00:26;22.10;99.90
1391;DHT22;690;51.454;7.194;2023-07-09T06:02:53;22.20;99.90
1391;DHT22;690;51.454;7.194;2023-07-09T06:05:19;22.30;99.90
1391;DHT22;690;51.454;7.194;2023-07-09T06:07:47;22.40;99.90
1391;DHT22;690;51.454;7.194;2023-07-09T06:10:14;22.50;99.90
1391;DHT22;690;51.454;7.194;2023-07-09T06:12:42;22.60;99.90
1391;DHT22;690;51.454;7.194;2023-07-09T06:15:10;22.70;99.90
1391;DHT22;690;51.454;7.194;2023-07-09T06:17:38;22.80;99.90
1391;DHT22;690;51.454;7.194;2023-07-09T06:20:06;22.80;99.90
1391;DHT22;690;51.454;7.194;2023-07-09T06:22:33;22.90;99.90
1391;DHT22;690;51.454;7.194;2023-07-09T06:25:00;23.00;99.90
1391;DHT22;690;51.454;7.194;2023-07-09T06:27:27;23.20;99.90
1391;DHT22;690;51.454;7.194;2023-07-09T06:29:54;23.30;99.90
1391;DHT22;690;51.454;7.194;2023-07-09T06:32:23;23.40;99.90
1391;DHT22;690;51.454;7.194;2023-07-09T06:34:50;23.40;99.90
1391;DHT22;690;51.454;7.194;2023-07-09T06:37:17;23.50;99.90
1391;DHT22;690;51.454;7.194;2023-07-09T06:39:44;23.60;99.90
1391;DHT22;690;51.454;7.194;2023-07-09T06:42:11;23.70;99.90
1391;DHT22;690;51.454;7.194;2023-07-09T06:44:38;23.80;99.90
1391;DHT22;690;51.454;7.194;2023-07-09T06:47:05;24.00;99.90
1391;DHT22;690;51.454;7.194;2023-07-09T06:49:33;24.10;99.90
1391;DHT22;690;51.454;7.194;2023-07-09T06:52:00;24.10;99.90
1391;DHT22;690;51.454;7.194;2023-07-09T06:54:28;24.20;99.90
1391;DHT22;690;51.454;7.194;2023-07-09T06:56:55;24.30;99.90
1391;DHT22;690;51.454;7.194;2023-07-09T06:59:23;24.40;99.90
1391;DHT22;690;51.454;7.194;2023-07-09T07:01:50;24.40;99.90
1391;DHT22;690;51.454;7.194;2023-07-09T07:04:17;24.60;99.90
1391;DHT22;690;51.454;7.194;2023-07-09T07:06:46;24.70;99.90
1391;DHT22;690;51.454;7.194;2023-07-09T07:09:13;24.70;99.90
1391;DHT22;690;51.454;7.194;2023-07-09T07:11:40;24.80;99.90
1391;DHT22;690;51.454;7.194;2023-07-09T07:14:07;25.00;99.90
1391;DHT22;690;51.454;7.194;2023-07-09T07:16:34;25.00;99.90
1391;DHT22;690;51.454;7.194;2023-07-09T07:19:01;25.10;99.90
1391;DHT22;690;51.454;7.194;2023-07-09T07:21:28;25.20;99.90
1391;DHT22;690;51.454;7.194;2023-07-09T07:23:57;25.40;99.90
1391;DHT22;690;51.454;7.194;2023-07-09T07:26:24;25.50;99.90
1391;DHT22;690;51.454;7.194;2023-07-09T07:28:51;25.60;99.90
1391;DHT22;690;51.454;7.194;2023-07-09T07:31:18;25.70;99.90
1391;DHT22;690;51.454;7.194;2023-07-09T07:33:45;25.80;99.90
1391;DHT22;690;51.454;7.194;2023-07-09T07:36:12;25.90;99.90
1391;DHT22;690;51.454;7.194;2023-07-09T07:38:39;26.00;99.90
1391;DHT22;690;51.454;7.194;2023-07-09T07:41:07;26.10;99.90
1391;DHT22;690;51.454;7.194;2023-07-09T07:43:34;26.20;99.90
1391;DHT22;690;51.454;7.194;2023-07-09T07:46:01;26.30;99.90
1391;DHT22;690;51.454;7.194;2023-07-09T07:48:30;26.30;99.90
1391;DHT22;690;51.454;7.194;2023-07-09T07:51:00;26.50;99.90
1391;DHT22;690;51.454;7.194;2023-07-09T07:53:28;26.60;99.90
1391;DHT22;690;51.454;7.194;2023-07-09T07:55:56;26.70;99.90
1391;DHT22;690;51.454;7.194;2023-07-09T07:58:24;26.80;99.90
1391;DHT22;690;51.454;7.194;2023-07-09T08:00:55;26.90;99.90
1391;DHT22;690;51.454;7.194;2023-07-09T08:03:22;26.90;99.90
1391;DHT22;690;51.454;7.194;2023-07-09T08:05:49;27.00;99.90
1391;DHT22;690;51.454;7.194;2023-07-09T08:08:17;27.10;99.90
1391;DHT22;690;51.454;7.194;2023-07-09T08:10:44;27.20;99.90
1391;DHT22;690;51.454;7.194;2023-07-09T08:13:10;27.20;99.90
1391;DHT22;690;51.454;7.194;2023-07-09T08:15:40;27.30;99.90
1391;DHT22;690;51.454;7.194;2023-07-09T08:18:08;27.40;99.90
1391;DHT22;690;51.454;7.194;2023-07-09T08:20:35;27.50;99.90
1391;DHT22;690;51.454;7.194;2023-07-09T08:23:02;27.60;99.90
1391;DHT22;690;51.454;7.194;2023-07-09T08:25:29;27.60;99.90
1391;DHT22;690;51.454;7.194;2023-07-09T08:27:56;27.80;99.90
1391;DHT22;690;51.454;7.194;2023-07-09T08:30:23;27.90;99.90
1391;DHT22;690;51.454;7.194;2023-07-09T08:32:51;28.00;99.90
1391;DHT22;690;51.454;7.194;2023-07-09T08:35:18;28.00;99.90
1391;DHT22;690;51.454;7.194;2023-07-09T08:37:45;28.10;99.90
1391;DHT22;690;51.454;7.194;2023-07-09T08:40:14;28.20;99.90
1391;DHT22;690;51.454;7.194;2023-07-09T08:42:44;28.30;99.90
1391;DHT22;690;51.454;7.194;2023-07-09T08:45:20;28.40;99.90
1391;DHT22;690;51.454;7.194;2023-07-09T08:47:58;28.50;99.90
1391;DHT22;690;51.454;7.194;2023-07-09T08:50:32;28.60;99.90
1391;DHT22;690;51.454;7.194;2023-07-09T08:52:59;28.70;99.90
1391;DHT22;690;51.454;7.194;2023-07-09T08:55:29;28.80;99.90
1391;DHT22;690;51.454;7.194;2023-07-09T08:58:03;28.90;99.90
1391;DHT22;690;51.454;7.194;2023-07-09T09:00:35;29.00;99.90
1391;DHT22;690;51.454;7.194;2023-07-09T09:03:15;29.00;99.90
1391;DHT22;690;51.454;7.194;2023-07-09T09:05:45;29.10;99.90
1391;DHT22;690;51.454;7.194;2023-07-09T09:08:22;29.20;99.90
1391;DHT22;690;51.454;7.194;2023-07-09T09:10:58;29.30;99.90
1391;DHT22;690;51.454;7.194;2023-07-09T09:13:29;29.40;99.90
1391;DHT22;690;51.454;7.194;2023-07-09T09:16:00;29.40;99.90
1391;DHT22;690;51.454;7.194;2023-07-09T09:18:40;29.50;99.90
1391;DHT22;690;51.454;7.194;2023-07-09T09:21:14;29.50;99.90
1391;DHT22;690;51.454;7.194;2023-07-09T09:23:48;29.60;99.90
1391;DHT22;690;51.454;7.194;2023-07-09T09:26:18;29.80;99.90
1391;DHT22;690;51.454;7.194;2023-07-09T09:28:45;29.80;99.90
1391;DHT22;690;51.454;7.194;2023-07-09T09:31:12;30.00;99.90
1391;DHT22;690;51.454;7.194;2023-07-09T09:33:43;30.10;99.90
1391;DHT22;690;51.454;7.194;2023-07-09T09:36:15;30.20;99.90
1391;DHT22;690;51.454;7.194;2023-07-09T09:38:42;30.30;99.90
1391;DHT22;690;51.454;7.194;2023-07-09T09:41:15;30.40;99.90
1391;DHT22;690;51.454;7.194;2023-07-09T09:43:43;30.40;99.90
1391;DHT22;690;51.454;7.194;2023-07-09T09:46:19;30.50;99.90
1391;DHT22;690;51.454;7.194;2023-07-09T09:48:49;30.50;99.90
1391;DHT22;690;51.454;7.194;2023-07-09T09:51:16;30.50;99.90
1391;DHT22;690;51.454;7.194;2023-07-09T09:53:48;30.60;99.90
1391;DHT22;690;51.454;7.194;2023-07-09T09:56:20;30.70;99.90
1391;DHT22;690;51.454;7.194;2023-07-09T09:58:53;30.90;99.90
1391;DHT22;690;51.454;7.194;2023-07-09T10:01:26;31.00;99.90
1391;DHT22;690;51.454;7.194;2023-07-09T10:03:57;31.10;99.90
1391;DHT22;690;51.454;7.194;2023-07-09T10:06:33;31.20;99.90
1391;DHT22;690;51.454;7.194;2023-07-09T10:09:08;31.20;99.90
1391;DHT22;690;51.454;7.194;2023-07-09T10:11:45;31.20;99.90
1391;DHT22;690;51.454;7.194;2023-07-09T10:14:24;31.30;99.90
1391;DHT22;690;51.454;7.194;2023-07-09T10:16:57;31.30;99.90
1391;DHT22;690;51.454;7.194;2023-07-09T10:19:34;31.40;99.90
1391;DHT22;690;51.454;7.194;2023-07-09T10:22:06;31.50;99.90
1391;DHT22;690;51.454;7.194;2023-07-09T10:24:42;31.60;99.90
1391;DHT22;690;51.454;7.194;2023-07-09T10:27:13;31.70;99.90
1391;DHT22;690;51.454;7.194;2023-07-09T10:29:55;31.70;99.90
1391;DHT22;690;51.454;7.194;2023-07-09T10:32:34;31.80;99.90
1391;DHT22;690;51.454;7.194;2023-07-09T10:35:13;31.90;99.90
1391;DHT22;690;51.454;7.194;2023-07-09T10:37:53;31.90;99.90
1391;DHT22;690;51.454;7.194;2023-07-09T10:40:27;32.00;99.90
1391;DHT22;690;51.454;7.194;2023-07-09T10:42:59;32.00;99.90
1391;DHT22;690;51.454;7.194;2023-07-09T10:45:34;32.10;99.90
1391;DHT22;690;51.454;7.194;2023-07-09T10:48:10;32.20;99.90
1391;DHT22;690;51.454;7.194;2023-07-09T10:50:42;32.20;99.90
1391;DHT22;690;51.454;7.194;2023-07-09T10:53:13;32.30;99.90
1391;DHT22;690;51.454;7.194;2023-07-09T10:55:47;32.30;99.90
1391;DHT22;690;51.454;7.194;2023-07-09T10:58:32;32.30;99.90
1391;DHT22;690;51.454;7.194;2023-07-09T11:01:00;32.30;99.90
1391;DHT22;690;51.454;7.194;2023-07-09T11:03:36;32.30;99.90
1391;DHT22;690;51.454;7.194;2023-07-09T11:06:13;32.40;99.90
1391;DHT22;690;51.454;7.194;2023-07-09T11:08:41;32.40;99.90
1391;DHT22;690;51.454;7.194;2023-07-09T11:11:13;32.60;99.90
1391;DHT22;690;51.454;7.194;2023-07-09T11:13:43;32.70;99.90
1391;DHT22;690;51.454;7.194;2023-07-09T11:16:15;32.80;99.90
1391;DHT22;690;51.454;7.194;2023-07-09T11:18:55;32.80;99.90
1391;DHT22;690;51.454;7.194;2023-07-09T11:21:24;32.80;99.90
1391;DHT22;690;51.454;7.194;2023-07-09T11:23:53;32.80;99.90
1391;DHT22;690;51.454;7.194;2023-07-09T11:26:24;32.80;99.90
1391;DHT22;690;51.454;7.194;2023-07-09T11:28:53;32.90;99.90
1391;DHT22;690;51.454;7.194;2023-07-09T11:31:23;33.00;99.90
1391;DHT22;690;51.454;7.194;2023-07-09T11:34:01;33.10;99.90
1391;DHT22;690;51.454;7.194;2023-07-09T11:36:31;33.10;99.90
1391;DHT22;690;51.454;7.194;2023-07-09T11:38:58;33.10;99.90
1391;DHT22;690;51.454;7.194;2023-07-09T11:41:38;33.20;99.90
1391;DHT22;690;51.454;7.194;2023-07-09T11:44:14;33.20;99.90
1391;DHT22;690;51.454;7.194;2023-07-09T11:46:50;33.30;99.90
1391;DHT22;690;51.454;7.194;2023-07-09T11:49:21;33.40;99.90
1391;DHT22;690;51.454;7.194;2023-07-09T11:51:54;33.50;99.90
1391;DHT22;690;51.454;7.194;2023-07-09T11:54:24;33.60;99.90
1391;DHT22;690;51.454;7.194;2023-07-09T11:56:57;33.80;99.90
1391;DHT22;690;51.454;7.194;2023-07-09T11:59:24;33.80;99.90
1391;DHT22;690;51.454;7.194;2023-07-09T12:01:52;33.80;99.90
1391;DHT22;690;51.454;7.194;2023-07-09T12:04:23;33.90;99.90
1391;DHT22;690;51.454;7.194;2023-07-09T12:06:58;34.00;99.90
1391;DHT22;690;51.454;7.194;2023-07-09T12:09:33;34.10;99.90
1391;DHT22;690;51.454;7.194;2023-07-09T12:12:02;34.10;99.90
1391;DHT22;690;51.454;7.194;2023-07-09T12:14:29;34.20;99.90
1391;DHT22;690;51.454;7.194;2023-07-09T12:16:56;34.30;99.90
1391;DHT22;690;51.454;7.194;2023-07-09T12:19:24;34.40;99.90
1391;DHT22;690;51.454;7.194;2023-07-09T12:21:58;34.60;99.90
1391;DHT22;690;51.454;7.194;2023-07-09T12:24:27;34.80;99.90
1391;DHT22;690;51.454;7.194;2023-07-09T12:26:58;35.00;99.90
1391;DHT22;690;51.454;7.194;2023-07-09T12:29:26;35.30;99.90
1391;DHT22;690;51.454;7.194;2023-07-09T12:31:53;35.40;99.90
1391;DHT22;690;51.454;7.194;2023-07-09T12:34:23;35.50;99.90
1391;DHT22;690;51.454;7.194;2023-07-09T12:37:00;35.60;99.90
1391;DHT22;690;51.454;7.194;2023-07-09T12:39:30;35.70;99.90
1391;DHT22;690;51.454;7.194;2023-07-09T12:42:05;35.80;99.90
1391;DHT22;690;51.454;7.194;2023-07-09T12:44:53;35.90;99.90
1391;DHT22;690;51.454;7.194;2023-07-09T12:47:30;36.20;99.90
1391;DHT22;690;51.454;7.194;2023-07-09T12:50:25;36.40;99.90
1391;DHT22;690;51.454;7.194;2023-07-09T12:53:13;36.50;99.90
1391;DHT22;690;51.454;7.194;2023-07-09T12:55:56;36.80;99.90
1391;DHT22;690;51.454;7.194;2023-07-09T12:58:37;36.90;99.90
1391;DHT22;690;51.454;7.194;2023-07-09T13:01:19;37.00;99.90
1391;DHT22;690;51.454;7.194;2023-07-09T13:04:08;37.20;99.90
1391;DHT22;690;51.454;7.194;2023-07-09T13:07:24;37.40;99.90
1391;DHT22;690;51.454;7.194;2023-07-09T13:10:42;37.70;99.90
1391;DHT22;690;51.454;7.194;2023-07-09T13:13:30;38.00;99.90
1391;DHT22;690;51.454;7.194;2023-07-09T13:16:15;38.00;99.90
1391;DHT22;690;51.454;7.194;2023-07-09T13:21:40;37.90;99.90
1391;DHT22;690;51.454;7.194;2023-07-09T13:24:16;38.00;99.90
1391;DHT22;690;51.454;7.194;2023-07-09T13:30:10;38.00;99.90
1391;DHT22;690;51.454;7.194;2023-07-09T13:32:51;37.80;99.90
1391;DHT22;690;51.454;7.194;2023-07-09T13:35:28;37.60;99.90
1391;DHT22;690;51.454;7.194;2023-07-09T13:37:59;37.50;99.90
1391;DHT22;690;51.454;7.194;2023-07-09T13:40:30;37.40;99.90
1391;DHT22;690;51.454;7.194;2023-07-09T13:42:59;37.40;99.90
1391;DHT22;690;51.454;7.194;2023-07-09T13:45:48;37.30;99.90
1391;DHT22;690;51.454;7.194;2023-07-09T13:48:26;37.20;99.90
1391;DHT22;690;51.454;7.194;2023-07-09T13:50:59;37.20;99.90
1391;DHT22;690;51.454;7.194;2023-07-09T13:54:16;37.10;99.90
1391;DHT22;690;51.454;7.194;2023-07-09T13:56:49;36.80;99.90
1391;DHT22;690;51.454;7.194;2023-07-09T13:59:21;36.70;99.90
1391;DHT22;690;51.454;7.194;2023-07-09T14:01:57;36.50;99.90
1391;DHT22;690;51.454;7.194;2023-07-09T14:04:47;36.40;99.90
1391;DHT22;690;51.454;7.194;2023-07-09T14:07:44;36.10;99.90
1391;DHT22;690;51.454;7.194;2023-07-09T14:10:28;35.90;99.90
1391;DHT22;690;51.454;7.194;2023-07-09T14:13:05;35.70;99.90
1391;DHT22;690;51.454;7.194;2023-07-09T14:16:28;35.50;99.90
1391;DHT22;690;51.454;7.194;2023-07-09T14:19:09;35.20;99.90
1391;DHT22;690;51.454;7.194;2023-07-09T14:21:39;35.00;99.90
1391;DHT22;690;51.454;7.194;2023-07-09T14:24:28;34.70;99.90
1391;DHT22;690;51.454;7.194;2023-07-09T14:30:33;34.10;99.90
1391;DHT22;690;51.454;7.194;2023-07-09T14:33:02;33.70;99.90
1391;DHT22;690;51.454;7.194;2023-07-09T14:35:29;33.30;99.90
1391;DHT22;690;51.454;7.194;2023-07-09T14:37:56;33.00;99.90
1391;DHT22;690;51.454;7.194;2023-07-09T14:40:25;32.80;99.90
1391;DHT22;690;51.454;7.194;2023-07-09T14:42:52;32.60;99.90
1391;DHT22;690;51.454;7.194;2023-07-09T14:45:22;32.40;99.90
1391;DHT22;690;51.454;7.194;2023-07-09T14:47:50;32.20;99.90
1391;DHT22;690;51.454;7.194;2023-07-09T14:50:19;32.00;99.90
1391;DHT22;690;51.454;7.194;2023-07-09T14:52:47;31.80;99.90
1391;DHT22;690;51.454;7.194;2023-07-09T14:55:15;31.60;99.90
1391;DHT22;690;51.454;7.194;2023-07-09T14:57:42;31.20;99.90
1391;DHT22;690;51.454;7.194;2023-07-09T15:00:13;30.50;99.90
1391;DHT22;690;51.454;7.194;2023-07-09T15:02:41;29.80;99.90
1391;DHT22;690;51.454;7.194;2023-07-09T15:05:17;29.20;99.90
1391;DHT22;690;51.454;7.194;2023-07-09T15:07:46;28.60;99.90
1391;DHT22;690;51.454;7.194;2023-07-09T15:10:15;28.00;99.90
1391;DHT22;690;51.454;7.194;2023-07-09T15:12:43;27.20;99.90
1391;DHT22;690;51.454;7.194;2023-07-09T15:15:18;26.70;99.90
1391;DHT22;690;51.454;7.194;2023-07-09T15:17:46;26.20;99.90
1391;DHT22;690;51.454;7.194;2023-07-09T15:20:15;25.40;99.90
1391;DHT22;690;51.454;7.194;2023-07-09T15:22:43;24.70;99.90
1391;DHT22;690;51.454;7.194;2023-07-09T15:25:15;24.20;99.90
1391;DHT22;690;51.454;7.194;2023-07-09T15:27:43;23.60;99.90
1391;DHT22;690;51.454;7.194;2023-07-09T15:30:14;23.10;99.90
1391;DHT22;690;51.454;7.194;2023-07-09T15:32:42;22.60;1.00
1391;DHT22;690;51.454;7.194;2023-07-09T15:35:09;21.80;1.00
1391;DHT22;690;51.454;7.194;2023-07-09T15:37:36;21.00;99.90
1391;DHT22;690;51.454;7.194;2023-07-09T15:40:04;20.30;1.00
1391;DHT22;690;51.454;7.194;2023-07-09T15:42:41;19.60;1.00
1391;DHT22;690;51.454;7.194;2023-07-09T15:45:08;19.20;99.90
1391;DHT22;690;51.454;7.194;2023-07-09T15:47:38;19.00;1.00
1391;DHT22;690;51.454;7.194;2023-07-09T15:50:13;18.90;1.00
1391;DHT22;690;51.454;7.194;2023-07-09T15:52:41;19.00;99.90
1391;DHT22;690;51.454;7.194;2023-07-09T15:55:13;19.00;1.00
1391;DHT22;690;51.454;7.194;2023-07-09T15:57:42;19.10;1.00
1391;DHT22;690;51.454;7.194;2023-07-09T16:00:18;19.10;1.00
1391;DHT22;690;51.454;7.194;2023-07-09T16:02:46;19.20;1.00
1391;DHT22;690;51.454;7.194;2023-07-09T16:05:23;19.20;1.00
1391;DHT22;690;51.454;7.194;2023-07-09T16:07:51;19.20;1.00
1391;DHT22;690;51.454;7.194;2023-07-09T16:10:19;19.30;1.00
1391;DHT22;690;51.454;7.194;2023-07-09T16:12:48;19.40;1.00
1391;DHT22;690;51.454;7.194;2023-07-09T16:15:17;19.50;1.00
1391;DHT22;690;51.454;7.194;2023-07-09T16:17:45;19.60;1.00
1391;DHT22;690;51.454;7.194;2023-07-09T16:20:14;19.70;1.00
1391;DHT22;690;51.454;7.194;2023-07-09T16:22:43;19.80;1.00
1391;DHT22;690;51.454;7.194;2023-07-09T16:25:15;19.80;1.00
1391;DHT22;690;51.454;7.194;2023-07-09T16:27:43;19.80;1.00
1391;DHT22;690;51.454;7.194;2023-07-09T16:30:16;19.80;1.00
1391;DHT22;690;51.454;7.194;2023-07-09T16:32:43;19.80;1.00
1391;DHT22;690;51.454;7.194;2023-07-09T16:35:12;19.90;1.00
1391;DHT22;690;51.454;7.194;2023-07-09T16:37:41;19.90;1.00
1391;DHT22;690;51.454;7.194;2023-07-09T16:40:14;20.00;1.00
1391;DHT22;690;51.454;7.194;2023-07-09T16:42:41;20.00;1.00
1391;DHT22;690;51.454;7.194;2023-07-09T16:45:08;20.10;1.00
1391;DHT22;690;51.454;7.194;2023-07-09T16:47:37;20.20;1.00
1391;DHT22;690;51.454;7.194;2023-07-09T16:50:05;20.30;1.00
1391;DHT22;690;51.454;7.194;2023-07-09T16:52:32;20.30;1.00
1391;DHT22;690;51.454;7.194;2023-07-09T16:54:59;20.40;1.00
1391;DHT22;690;51.454;7.194;2023-07-09T16:57:27;20.50;1.00